Time;durP1;ratioP1;P1;durP2;ratioP2;P2;SDS_P1;SDS_P2;PMS_P1;PMS_P2;Temp;Humidity;BMP_temperature;BMP_pressure;BME280_temperature;BME280_humidity;BME280_pressure;Samples;Min_cycle;Max_cycle;Signal;HPM_P1;HPM_P2
2023/09/25 00:00:35;;;;;;;2.40;1.93;;;11.00;99.90;;;;;;4933882;29;20603;-86
2023/09/25 00:03:03;;;;;;;6.50;2.70;;;11.10;99.90;;;;;;4931846;29;20263;-87
2023/09/25 00:05:29;;;;;;;3.45;3.08;;;11.10;99.90;;;;;;4931067;29;20447;-85
2023/09/25 00:07:55;;;;;;;2.80;2.43;;;11.20;99.90;;;;;;4932755;29;20607;-86
2023/09/25 00:10:21;;;;;;;2.50;2.08;;;11.20;99.90;;;;;;4928931;29;20499;-84
2023/09/25 00:12:47;;;;;;;3.38;2.70;;;11.00;99.90;;;;;;4951645;28;20747;-87
2023/09/25 00:15:13;;;;;;;3.53;2.72;;;11.30;99.90;;;;;;4930799;29;20562;-87
2023/09/25 00:17:40;;;;;;;2.60;2.20;;;10.90;99.90;;;;;;4929984;29;20659;-85
2023/09/25 00:20:10;;;;;;;2.92;2.42;;;10.60;99.90;;;;;;4933323;29;20188;-87
2023/09/25 00:22:36;;;;;;;2.38;2.17;;;11.00;99.90;;;;;;4935106;29;20239;-87
2023/09/25 00:25:02;;;;;;;2.75;2.55;;;11.20;99.90;;;;;;4929606;29;20283;-87
2023/09/25 00:27:27;;;;;;;3.87;2.60;;;10.90;99.90;;;;;;4932794;29;20723;-87
2023/09/25 00:29:53;;;;;;;2.73;2.50;;;10.90;99.90;;;;;;4930022;29;20446;-87
2023/09/25 00:32:18;;;;;;;2.93;2.63;;;11.10;99.90;;;;;;4929471;29;20716;-87
2023/09/25 00:34:44;;;;;;;2.80;2.50;;;10.90;99.90;;;;;;4930379;29;20184;-86
2023/09/25 00:37:09;;;;;;;2.73;2.53;;;10.50;99.90;;;;;;4928451;29;20201;-87
2023/09/25 00:39:35;;;;;;;2.93;2.57;;;10.80;99.90;;;;;;4931658;29;20664;-87
2023/09/25 00:42:00;;;;;;;3.17;2.80;;;10.50;99.90;;;;;;4931227;29;20700;-87
2023/09/25 00:44:26;;;;;;;3.47;2.73;;;11.00;99.90;;;;;;4931199;29;20194;-86
2023/09/25 00:46:55;;;;;;;3.07;2.50;;;11.00;99.90;;;;;;4931450;29;20216;-86
2023/09/25 00:49:20;;;;;;;2.45;2.17;;;11.00;99.90;;;;;;4937525;29;20550;-86
2023/09/25 00:51:48;;;;;;;3.03;2.70;;;11.10;99.90;;;;;;4950029;28;20199;-87
2023/09/25 00:54:15;;;;;;;2.92;2.63;;;10.90;99.90;;;;;;4935166;29;20230;-86
2023/09/25 00:56:41;;;;;;;2.65;2.45;;;10.60;99.90;;;;;;4950303;28;20208;-86
2023/09/25 00:59:07;;;;;;;3.03;2.60;;;10.80;99.90;;;;;;4931497;29;20206;-87
2023/09/25 01:01:33;;;;;;;3.43;2.60;;;10.60;99.90;;;;;;4935923;29;20247;-86
2023/09/25 01:03:59;;;;;;;2.70;2.50;;;10.90;99.90;;;;;;4932856;29;20455;-85
2023/09/25 01:06:24;;;;;;;2.83;2.63;;;11.20;99.90;;;;;;4942761;29;20202;-85
2023/09/25 01:08:50;;;;;;;3.00;2.70;;;10.90;99.90;;;;;;4940139;29;20901;-86
2023/09/25 01:11:15;;;;;;;6.00;3.03;;;10.90;99.90;;;;;;4933373;29;20219;-85
2023/09/25 01:13:41;;;;;;;2.90;2.60;;;11.20;99.90;;;;;;4933817;29;20219;-86
2023/09/25 01:16:07;;;;;;;3.07;2.80;;;10.60;99.90;;;;;;4933725;29;20569;-85
2023/09/25 01:18:33;;;;;;;5.30;2.80;;;10.60;99.90;;;;;;4932376;29;20447;-87
2023/09/25 01:21:01;;;;;;;3.00;2.30;;;10.90;99.90;;;;;;4932511;29;20183;-86
2023/09/25 01:23:27;;;;;;;3.05;2.40;;;10.70;99.90;;;;;;4933566;29;20203;-86
2023/09/25 01:25:52;;;;;;;3.60;2.55;;;10.80;99.90;;;;;;4930513;29;20598;-87
2023/09/25 01:28:18;;;;;;;3.10;2.40;;;10.50;99.90;;;;;;4934118;29;20290;-86
2023/09/25 01:30:44;;;;;;;2.83;2.10;;;10.90;99.90;;;;;;4931910;29;20222;-86
2023/09/25 01:33:10;;;;;;;3.30;2.55;;;10.70;99.90;;;;;;4931971;29;20214;-86
2023/09/25 01:35:35;;;;;;;4.67;2.73;;;10.50;99.90;;;;;;4932989;29;20183;-86
2023/09/25 01:38:04;;;;;;;4.20;3.23;;;10.40;99.90;;;;;;4930567;29;20569;-86
2023/09/25 01:40:30;;;;;;;3.20;2.50;;;10.60;99.90;;;;;;4932305;29;20266;-85
2023/09/25 01:42:56;;;;;;;3.55;2.72;;;10.50;99.90;;;;;;4936543;29;20242;-86
2023/09/25 01:45:23;;;;;;;3.17;2.50;;;9.80;99.90;;;;;;4938816;29;20226;-86
2023/09/25 01:47:50;;;;;;;3.40;3.10;;;10.70;99.90;;;;;;4935684;29;20188;-87
2023/09/25 01:50:23;;;;;;;4.47;3.17;;;10.60;99.90;;;;;;4935841;29;20196;-86
2023/09/25 01:53:07;;;;;;;3.10;2.60;;;10.30;99.90;;;;;;4933697;29;20232;-85
2023/09/25 01:55:36;;;;;;;3.50;2.90;;;9.90;99.90;;;;;;4936139;29;20726;-86
2023/09/25 01:58:03;;;;;;;2.97;2.75;;;10.10;99.90;;;;;;4936338;29;20190;-85
2023/09/25 02:00:28;;;;;;;4.13;2.60;;;10.30;99.90;;;;;;4935763;29;20187;-85
2023/09/25 02:02:54;;;;;;;3.00;2.70;;;10.40;99.90;;;;;;4937069;29;20230;-86
2023/09/25 02:05:19;;;;;;;2.90;2.53;;;10.10;99.90;;;;;;4935416;29;20716;-86
2023/09/25 02:07:45;;;;;;;3.53;2.90;;;10.00;99.90;;;;;;4936360;29;20568;-86
2023/09/25 02:10:11;;;;;;;3.30;3.00;;;10.50;99.90;;;;;;4949668;28;20340;-86
2023/09/25 02:12:36;;;;;;;3.10;2.70;;;10.10;99.90;;;;;;4936524;29;20218;-86
2023/09/25 02:15:05;;;;;;;2.97;2.67;;;10.20;99.90;;;;;;4936176;29;20235;-85
2023/09/25 02:17:31;;;;;;;2.75;2.55;;;10.20;99.90;;;;;;4932926;29;20200;-86
2023/09/25 02:20:08;;;;;;;3.50;2.93;;;10.00;99.90;;;;;;4937935;29;20184;-87
2023/09/25 02:22:34;;;;;;;3.05;2.67;;;10.50;99.90;;;;;;4934441;29;21466;-85
2023/09/25 02:24:59;;;;;;;3.13;2.77;;;9.90;99.90;;;;;;4935031;29;20271;-85
2023/09/25 02:27:25;;;;;;;2.60;2.40;;;9.90;99.90;;;;;;4936047;29;20184;-85
2023/09/25 02:29:50;;;;;;;3.13;2.70;;;10.00;99.90;;;;;;4936827;29;20525;-84
2023/09/25 02:32:16;;;;;;;3.23;2.60;;;9.50;99.90;;;;;;4934594;29;20210;-86
2023/09/25 02:34:41;;;;;;;3.77;2.90;;;10.10;99.90;;;;;;4954143;28;20282;-86
2023/09/25 02:37:07;;;;;;;3.07;2.70;;;10.10;99.90;;;;;;4971740;23;20245;-84
2023/09/25 02:39:32;;;;;;;5.50;3.27;;;10.30;99.90;;;;;;4964476;29;20659;-84
2023/09/25 02:41:58;;;;;;;3.77;2.90;;;10.30;99.90;;;;;;4953666;29;20205;-84
2023/09/25 02:44:23;;;;;;;5.90;2.80;;;9.90;99.90;;;;;;4962163;28;20201;-84
2023/09/25 02:46:49;;;;;;;2.90;2.70;;;9.90;99.90;;;;;;4961262;29;20198;-84
2023/09/25 02:49:14;;;;;;;3.40;3.10;;;10.30;99.90;;;;;;4958944;29;20600;-84
2023/09/25 02:51:40;;;;;;;3.67;2.93;;;9.90;99.90;;;;;;4953046;28;20655;-84
2023/09/25 02:54:05;;;;;;;4.30;3.70;;;10.00;99.90;;;;;;4954219;29;20199;-84
2023/09/25 02:56:31;;;;;;;3.03;2.83;;;10.00;99.90;;;;;;4952222;29;20752;-84
2023/09/25 02:58:56;;;;;;;3.03;2.73;;;10.10;99.90;;;;;;4954401;29;20221;-85
2023/09/25 03:01:22;;;;;;;3.27;2.97;;;9.90;99.90;;;;;;4952737;29;20214;-84
2023/09/25 03:03:47;;;;;;;3.07;2.77;;;10.00;99.90;;;;;;4945632;29;20250;-86
2023/09/25 03:06:13;;;;;;;3.77;2.77;;;9.80;99.90;;;;;;4946705;29;20209;-86
2023/09/25 03:08:38;;;;;;;4.27;3.17;;;10.10;99.90;;;;;;4944822;29;20197;-86
2023/09/25 03:11:04;;;;;;;5.40;3.13;;;10.20;99.90;;;;;;4946204;29;20186;-86
2023/09/25 03:13:29;;;;;;;4.63;3.00;;;10.20;99.90;;;;;;4946421;29;20303;-86
2023/09/25 03:15:55;;;;;;;3.97;3.53;;;9.70;99.90;;;;;;4945221;29;20285;-86
2023/09/25 03:18:20;;;;;;;3.17;2.87;;;10.10;99.90;;;;;;4942923;29;20330;-86
2023/09/25 03:20:46;;;;;;;3.50;3.00;;;10.30;99.90;;;;;;4944241;28;20218;-86
2023/09/25 03:23:11;;;;;;;3.00;2.70;;;10.00;99.90;;;;;;4944613;29;20609;-86
2023/09/25 03:25:39;;;;;;;4.23;3.70;;;10.00;99.90;;;;;;4944502;29;20197;-86
2023/09/25 03:28:05;;;;;;;3.33;3.03;;;9.60;99.90;;;;;;4946133;29;20194;-86
2023/09/25 03:30:31;;;;;;;3.17;2.90;;;9.90;99.90;;;;;;4946806;29;20185;-86
2023/09/25 03:32:56;;;;;;;3.50;2.70;;;9.70;99.90;;;;;;4943848;29;20211;-86
2023/09/25 03:35:22;;;;;;;3.30;3.00;;;9.50;99.90;;;;;;4942985;29;20193;-86
2023/09/25 03:37:48;;;;;;;4.05;3.20;;;9.90;99.90;;;;;;4944691;29;20196;-86
2023/09/25 03:40:13;;;;;;;5.77;2.70;;;9.80;99.90;;;;;;4939724;29;20189;-86
2023/09/25 03:42:40;;;;;;;3.40;2.93;;;9.70;99.90;;;;;;4945175;29;20204;-86
2023/09/25 03:45:06;;;;;;;2.95;2.65;;;10.00;99.90;;;;;;4943277;29;20613;-86
2023/09/25 03:47:34;;;;;;;3.50;3.17;;;9.50;99.90;;;;;;4948857;29;20190;-86
2023/09/25 03:49:59;;;;;;;2.75;2.55;;;9.90;99.90;;;;;;4945379;28;20190;-86
2023/09/25 03:52:25;;;;;;;3.60;2.70;;;9.70;99.90;;;;;;4946261;29;20568;-86
2023/09/25 03:54:50;;;;;;;3.60;2.93;;;9.80;99.90;;;;;;4944193;29;20226;-86
2023/09/25 03:57:16;;;;;;;3.53;3.23;;;9.60;99.90;;;;;;4942688;29;20189;-86
2023/09/25 03:59:41;;;;;;;2.93;2.70;;;9.50;99.90;;;;;;4941587;28;20664;-86
2023/09/25 04:02:07;;;;;;;3.67;2.80;;;9.40;99.90;;;;;;4942771;29;20206;-86
2023/09/25 04:04:33;;;;;;;4.20;3.17;;;9.50;99.90;;;;;;4942636;29;20183;-87
2023/09/25 04:06:58;;;;;;;3.80;3.00;;;9.80;99.90;;;;;;4939882;29;20201;-86
2023/09/25 04:09:24;;;;;;;3.47;3.10;;;10.00;99.90;;;;;;4943331;29;20586;-86
2023/09/25 04:11:50;;;;;;;3.60;3.10;;;9.60;99.90;;;;;;4943074;29;20197;-87
2023/09/25 04:14:15;;;;;;;3.30;3.00;;;9.70;99.90;;;;;;4931740;29;20226;-87
2023/09/25 04:16:41;;;;;;;3.07;2.77;;;9.50;99.90;;;;;;4944107;29;20264;-87
2023/09/25 04:19:06;;;;;;;3.93;3.40;;;9.50;99.90;;;;;;4941274;28;20188;-87
2023/09/25 04:21:32;;;;;;;3.37;3.07;;;9.60;99.90;;;;;;4942653;29;20205;-87
2023/09/25 04:24:00;;;;;;;3.30;2.97;;;9.60;99.90;;;;;;4942092;29;20468;-87
2023/09/25 04:26:25;;;;;;;4.40;3.10;;;9.80;99.90;;;;;;4942120;29;20201;-87
2023/09/25 04:28:51;;;;;;;5.10;3.50;;;9.70;99.90;;;;;;4943962;29;20192;-87
2023/09/25 04:31:16;;;;;;;3.47;3.17;;;9.90;99.90;;;;;;4955539;28;20343;-87
2023/09/25 04:33:42;;;;;;;4.03;3.10;;;10.10;99.90;;;;;;4940271;29;20265;-87
2023/09/25 04:36:10;;;;;;;4.47;3.20;;;9.40;99.90;;;;;;4938049;29;20277;-87
2023/09/25 04:38:36;;;;;;;3.55;3.00;;;9.50;99.90;;;;;;4944856;28;20187;-87
2023/09/25 04:41:02;;;;;;;3.60;2.83;;;9.20;99.90;;;;;;4944838;29;20182;-87
2023/09/25 04:43:28;;;;;;;3.10;2.80;;;9.50;99.90;;;;;;4942709;29;20591;-87
2023/09/25 04:45:55;;;;;;;3.73;3.37;;;9.60;99.90;;;;;;4945342;29;20452;-87
2023/09/25 04:48:21;;;;;;;5.78;3.60;;;9.60;99.90;;;;;;4943435;29;20184;-87
2023/09/25 04:50:48;;;;;;;5.60;5.05;;;9.80;99.90;;;;;;4940083;29;20218;-87
2023/09/25 04:53:14;;;;;;;7.00;4.65;;;9.80;99.90;;;;;;4938722;29;20225;-88
2023/09/25 04:55:41;;;;;;;5.43;3.75;;;9.70;99.90;;;;;;4941039;28;20216;-87
2023/09/25 04:58:08;;;;;;;3.08;2.78;;;9.30;99.90;;;;;;4941919;29;20206;-87
2023/09/25 05:00:34;;;;;;;4.28;3.20;;;9.30;99.90;;;;;;4942270;29;20544;-87
2023/09/25 05:03:00;;;;;;;5.47;3.77;;;9.30;99.90;;;;;;4938474;29;20213;-87
2023/09/25 05:05:26;;;;;;;3.53;3.17;;;9.50;99.90;;;;;;4942280;28;20198;-87
2023/09/25 05:07:54;;;;;;;3.55;2.97;;;9.20;99.90;;;;;;4942308;29;20194;-88
2023/09/25 05:10:25;;;;;;;3.50;3.20;;;9.40;99.90;;;;;;4945356;29;20184;-88
2023/09/25 05:12:52;;;;;;;6.20;3.25;;;9.90;99.90;;;;;;4952786;29;20205;-88
2023/09/25 05:15:18;;;;;;;4.70;3.28;;;9.70;99.90;;;;;;4966959;28;20199;-88
2023/09/25 05:17:45;;;;;;;6.25;3.17;;;9.90;99.90;;;;;;4949768;29;20198;-88
2023/09/25 05:20:19;;;;;;;3.30;3.00;;;9.50;99.90;;;;;;4947005;28;20179;-88
2023/09/25 05:22:50;;;;;;;4.35;3.47;;;9.60;99.90;;;;;;4969949;28;20206;-88
2023/09/25 05:25:17;;;;;;;6.82;3.15;;;9.50;99.90;;;;;;4960657;28;20191;-88
2023/09/25 05:27:45;;;;;;;4.28;3.10;;;10.00;99.90;;;;;;4951938;29;20182;-88
2023/09/25 05:30:11;;;;;;;7.70;3.45;;;9.90;99.90;;;;;;4947491;29;20189;-89
2023/09/25 05:32:38;;;;;;;4.45;4.05;;;9.60;99.90;;;;;;4952381;29;20207;-88
2023/09/25 05:35:04;;;;;;;25.92;18.50;;;10.00;99.90;;;;;;4964253;28;20181;-88
2023/09/25 05:37:30;;;;;;;5.78;4.60;;;9.50;99.90;;;;;;4968379;29;20194;-88
2023/09/25 05:39:56;;;;;;;5.03;4.17;;;9.50;99.90;;;;;;4963448;29;20221;-88
2023/09/25 05:42:21;;;;;;;3.50;3.20;;;9.80;99.90;;;;;;4951421;29;20832;-88
2023/09/25 05:44:47;;;;;;;4.90;3.87;;;9.80;99.90;;;;;;4948110;29;20265;-88
2023/09/25 05:47:12;;;;;;;3.73;3.37;;;10.20;99.90;;;;;;4950138;29;20232;-88
2023/09/25 05:49:38;;;;;;;4.00;3.47;;;9.80;99.90;;;;;;4951626;29;20205;-89
2023/09/25 05:52:04;;;;;;;4.53;3.70;;;10.20;99.90;;;;;;4949124;29;20213;-88
2023/09/25 05:54:31;;;;;;;11.67;7.87;;;10.10;99.90;;;;;;4947955;29;20587;-89
2023/09/25 05:56:57;;;;;;;5.60;3.58;;;9.70;99.90;;;;;;4952271;29;20276;-88
2023/09/25 05:59:23;;;;;;;4.13;3.40;;;10.00;99.90;;;;;;4961174;28;20675;-88
2023/09/25 06:01:49;;;;;;;3.55;3.15;;;9.90;99.90;;;;;;4948715;29;20181;-88
2023/09/25 06:04:16;;;;;;;6.67;4.20;;;9.80;99.90;;;;;;4950238;29;20194;-88
2023/09/25 06:06:42;;;;;;;7.15;3.80;;;10.00;99.90;;;;;;4953721;29;20189;-88
2023/09/25 06:09:08;;;;;;;4.90;4.40;;;10.10;99.90;;;;;;4952971;29;20275;-88
2023/09/25 06:11:38;;;;;;;8.73;3.92;;;10.00;99.90;;;;;;4948657;29;20616;-88
2023/09/25 06:14:05;;;;;;;5.13;3.63;;;10.40;99.90;;;;;;4950799;29;20707;-89
2023/09/25 06:16:30;;;;;;;3.60;3.30;;;10.20;99.90;;;;;;4949341;29;20191;-88
2023/09/25 06:18:56;;;;;;;4.57;3.93;;;9.90;99.90;;;;;;4950275;29;20197;-88
2023/09/25 06:21:21;;;;;;;4.20;3.37;;;10.50;99.90;;;;;;4949292;29;20643;-88
2023/09/25 06:23:48;;;;;;;3.93;3.33;;;10.40;99.90;;;;;;4971446;29;20240;-88
2023/09/25 06:26:14;;;;;;;9.90;3.95;;;10.10;99.90;;;;;;4966360;28;20219;-88
2023/09/25 06:28:41;;;;;;;8.40;4.87;;;10.00;99.90;;;;;;4970925;29;20191;-88
2023/09/25 06:31:07;;;;;;;4.30;3.80;;;10.20;99.90;;;;;;4961964;28;20487;-88
2023/09/25 06:33:33;;;;;;;5.17;4.70;;;10.40;99.90;;;;;;4951900;29;20368;-88
2023/09/25 06:35:59;;;;;;;5.23;3.80;;;10.20;99.90;;;;;;4951062;29;20505;-88
2023/09/25 06:38:24;;;;;;;5.43;3.90;;;10.50;99.90;;;;;;4949769;29;20182;-88
2023/09/25 06:40:50;;;;;;;6.90;3.57;;;10.40;99.90;;;;;;4944068;29;20195;-89
2023/09/25 06:43:16;;;;;;;4.80;3.87;;;10.30;99.90;;;;;;4949137;29;20214;-89
2023/09/25 06:45:41;;;;;;;6.37;4.00;;;10.90;99.90;;;;;;4966264;28;20469;-88
2023/09/25 06:48:07;;;;;;;5.80;3.97;;;10.50;99.90;;;;;;4970199;28;20248;-88
2023/09/25 06:50:33;;;;;;;6.63;4.50;;;10.90;99.90;;;;;;4949922;28;20330;-89
2023/09/25 06:52:58;;;;;;;4.60;3.70;;;11.10;99.90;;;;;;4948819;29;20222;-89
2023/09/25 06:55:24;;;;;;;5.00;4.30;;;11.10;99.90;;;;;;4946844;29;20456;-88
2023/09/25 06:57:50;;;;;;;5.83;4.10;;;11.50;99.90;;;;;;4944230;29;20561;-88
2023/09/25 07:00:17;;;;;;;6.43;4.23;;;12.10;99.90;;;;;;4949499;29;20247;-89
2023/09/25 07:02:43;;;;;;;7.10;4.07;;;12.50;99.90;;;;;;4946802;29;20251;-89
2023/09/25 07:05:09;;;;;;;5.80;3.90;;;12.70;99.90;;;;;;4946475;29;20212;-89
2023/09/25 07:07:36;;;;;;;4.13;3.75;;;13.30;99.90;;;;;;4946198;29;20189;-89
2023/09/25 07:10:03;;;;;;;5.57;3.50;;;13.90;99.90;;;;;;4945776;29;20205;-89
2023/09/25 07:12:30;;;;;;;4.90;4.10;;;14.40;99.90;;;;;;4946049;29;20223;-89
2023/09/25 07:14:56;;;;;;;4.55;3.50;;;16.10;99.60;;;;;;4948082;29;20213;-89
2023/09/25 07:17:22;;;;;;;6.10;5.50;;;18.10;96.40;;;;;;4946050;29;20197;-89
2023/09/25 07:19:52;;;;;;;4.97;3.97;;;17.10;94.70;;;;;;4945716;29;20617;-89
2023/09/25 07:22:20;;;;;;;5.28;3.78;;;17.50;94.30;;;;;;4948065;29;20249;-89
2023/09/25 07:24:46;;;;;;;5.28;3.60;;;17.70;94.30;;;;;;4955810;28;20180;-89
2023/09/25 07:27:11;;;;;;;4.63;3.70;;;17.60;93.90;;;;;;4966025;28;20208;-88
2023/09/25 07:29:37;;;;;;;7.80;4.27;;;18.00;93.40;;;;;;4946195;28;20197;-89
2023/09/25 07:32:03;;;;;;;4.23;3.57;;;17.70;93.40;;;;;;4945882;29;20300;-88
2023/09/25 07:34:29;;;;;;;6.80;3.95;;;17.20;93.30;;;;;;4955724;29;20216;-89
2023/09/25 07:36:55;;;;;;;6.33;4.20;;;16.70;94.30;;;;;;4957494;28;20205;-89
2023/09/25 07:39:22;;;;;;;5.90;4.38;;;16.20;95.00;;;;;;4957050;29;20189;-89
2023/09/25 07:41:51;;;;;;;6.13;3.67;;;16.20;95.40;;;;;;4948269;29;20261;-88
2023/09/25 07:44:16;;;;;;;5.20;4.70;;;17.40;94.70;;;;;;4949050;29;20677;-89
2023/09/25 07:46:44;;;;;;;4.67;3.97;;;19.90;91.80;;;;;;4945426;28;20217;-89
2023/09/25 07:49:10;;;;;;;4.40;3.57;;;20.20;87.20;;;;;;4949390;29;20245;-87
2023/09/25 07:51:36;;;;;;;6.43;3.87;;;22.90;82.60;;;;;;4950258;29;20441;-87
2023/09/25 07:54:03;;;;;;;5.37;4.83;;;24.40;74.50;;;;;;4944442;29;20989;-89
2023/09/25 07:56:30;;;;;;;6.33;4.27;;;23.80;70.30;;;;;;4946545;29;20535;-87
2023/09/25 07:58:55;;;;;;;8.20;4.90;;;23.90;71.70;;;;;;4939045;29;21041;-87
2023/09/25 08:01:22;;;;;;;4.73;4.33;;;23.70;70.10;;;;;;4948586;29;20441;-87
2023/09/25 08:03:51;;;;;;;6.23;4.07;;;24.70;70.90;;;;;;4953126;29;20822;-87
2023/09/25 08:06:19;;;;;;;4.60;4.20;;;23.90;68.70;;;;;;4947911;28;20445;-87
2023/09/25 08:08:47;;;;;;;4.83;4.37;;;22.50;72.60;;;;;;4952001;29;20441;-88
2023/09/25 08:11:15;;;;;;;5.07;4.55;;;21.30;73.90;;;;;;4950640;29;20687;-87
2023/09/25 08:13:41;;;;;;;6.25;4.18;;;20.90;77.70;;;;;;4942493;29;20212;-87
2023/09/25 08:16:07;;;;;;;6.90;5.67;;;19.70;81.50;;;;;;4941919;29;20253;-87
2023/09/25 08:18:33;;;;;;;6.03;5.43;;;19.40;83.80;;;;;;4946980;29;20496;-87
2023/09/25 08:20:59;;;;;;;6.40;4.95;;;19.00;87.50;;;;;;4945859;29;20196;-87
2023/09/25 08:23:25;;;;;;;6.30;5.70;;;18.00;88.80;;;;;;4946532;29;20556;-87
2023/09/25 08:25:50;;;;;;;10.53;5.30;;;17.60;91.40;;;;;;4957789;28;20192;-87
2023/09/25 08:28:16;;;;;;;6.77;5.37;;;17.40;91.70;;;;;;4968876;28;20178;-86
2023/09/25 08:30:42;;;;;;;6.13;4.90;;;17.30;92.60;;;;;;4970588;28;20392;-87
2023/09/25 08:33:07;;;;;;;5.73;5.10;;;17.30;93.10;;;;;;4954594;28;20237;-89
2023/09/25 08:35:33;;;;;;;8.20;5.03;;;17.10;93.10;;;;;;4957945;29;20220;-88
2023/09/25 08:37:59;;;;;;;9.30;5.10;;;16.90;93.20;;;;;;4956470;29;20220;-87
2023/09/25 08:40:25;;;;;;;9.23;6.17;;;17.30;93.60;;;;;;4952560;29;20196;-87
2023/09/25 08:42:51;;;;;;;6.47;5.10;;;17.30;93.90;;;;;;4944410;28;20264;-87
2023/09/25 08:45:20;;;;;;;5.07;4.57;;;16.90;93.80;;;;;;4939748;29;20653;-87
2023/09/25 08:47:45;;;;;;;7.50;6.03;;;17.30;93.80;;;;;;4941156;29;20286;-87
2023/09/25 08:50:12;;;;;;;5.47;4.73;;;17.60;94.20;;;;;;4942400;29;20185;-87
2023/09/25 08:52:39;;;;;;;5.05;4.57;;;17.80;94.10;;;;;;4941789;29;21254;-87
2023/09/25 08:55:06;;;;;;;4.25;3.70;;;17.40;93.80;;;;;;4945012;29;20182;-87
2023/09/25 08:57:32;;;;;;;4.30;3.90;;;17.40;93.30;;;;;;4942269;29;20185;-87
2023/09/25 09:00:11;;;;;;;4.90;4.03;;;17.10;93.00;;;;;;4941779;29;20210;-87
2023/09/25 09:02:40;;;;;;;4.60;3.47;;;18.10;93.40;;;;;;4945469;28;20204;-87
2023/09/25 09:05:15;;;;;;;3.88;3.58;;;18.30;93.40;;;;;;4946134;29;20650;-87
2023/09/25 09:08:02;;;;;;;4.45;3.50;;;18.20;92.50;;;;;;4942799;29;20537;-88
2023/09/25 09:10:34;;;;;;;3.85;3.40;;;18.10;92.30;;;;;;4948636;29;20308;-87
2023/09/25 09:13:01;;;;;;;9.32;6.80;;;18.50;92.30;;;;;;4944740;29;20213;-87
2023/09/25 09:15:28;;;;;;;4.35;3.00;;;18.80;91.90;;;;;;4942422;29;20185;-87
2023/09/25 09:17:56;;;;;;;4.65;3.67;;;18.30;91.50;;;;;;4944256;29;20294;-87
2023/09/25 09:20:42;;;;;;;6.85;3.50;;;18.50;91.50;;;;;;4942140;29;20185;-87
2023/09/25 09:23:08;;;;;;;4.78;4.32;;;18.40;90.90;;;;;;4926542;29;20225;-87
2023/09/25 09:25:35;;;;;;;3.83;3.42;;;18.60;91.20;;;;;;4943351;29;20199;-87
2023/09/25 09:28:03;;;;;;;4.78;3.65;;;18.20;91.10;;;;;;4941575;29;20594;-87
2023/09/25 09:30:29;;;;;;;3.50;3.20;;;18.70;91.40;;;;;;4944517;29;20260;-87
2023/09/25 09:32:55;;;;;;;4.20;3.90;;;18.90;91.40;;;;;;4951458;29;20697;-87
2023/09/25 09:35:24;;;;;;;3.38;3.08;;;19.20;91.00;;;;;;4956104;28;20174;-88
2023/09/25 09:37:54;;;;;;;4.93;3.75;;;19.40;90.40;;;;;;4956453;28;20621;-88
2023/09/25 09:40:24;;;;;;;3.37;2.87;;;20.40;87.70;;;;;;4954221;29;20180;-87
2023/09/25 09:42:53;;;;;;;3.57;2.70;;;22.90;81.60;;;;;;4965680;28;20457;-88
2023/09/25 09:45:21;;;;;;;3.70;3.20;;;24.30;72.90;;;;;;4961463;29;20475;-88
2023/09/25 09:47:49;;;;;;;3.50;3.20;;;26.40;66.90;;;;;;4952873;29;20446;-88
2023/09/25 09:50:28;;;;;;;4.40;4.10;;;29.10;58.70;;;;;;4940231;29;20461;-87
2023/09/25 09:52:54;;;;;;;3.40;2.97;;;29.50;54.80;;;;;;4949748;29;20924;-87
2023/09/25 09:55:21;;;;;;;3.40;3.10;;;29.60;51.30;;;;;;4951146;29;20459;-87
2023/09/25 09:57:49;;;;;;;4.50;3.07;;;30.60;50.50;;;;;;4947722;29;20563;-87
2023/09/25 10:00:15;;;;;;;3.13;2.73;;;30.50;49.70;;;;;;4941068;28;20446;-88
2023/09/25 10:02:41;;;;;;;3.00;2.80;;;30.80;48.20;;;;;;4946812;29;20471;-88
2023/09/25 10:05:10;;;;;;;3.13;2.80;;;30.80;47.90;;;;;;4948326;29;20775;-88
2023/09/25 10:08:06;;;;;;;2.90;2.60;;;31.40;46.20;;;;;;4970449;28;20440;-87
2023/09/25 10:10:40;;;;;;;3.13;2.70;;;32.20;44.40;;;;;;4953876;28;20529;-88
2023/09/25 10:13:26;;;;;;;5.20;3.10;;;31.80;45.70;;;;;;4947068;29;20467;-87
2023/09/25 10:16:00;;;;;;;3.73;2.80;;;32.10;43.70;;;;;;4944999;29;20445;-87
2023/09/25 10:18:26;;;;;;;2.97;2.70;;;31.10;43.80;;;;;;4945561;28;20814;-87
2023/09/25 10:21:10;;;;;;;3.60;3.30;;;30.10;46.90;;;;;;4948332;29;20952;-87
2023/09/25 10:23:39;;;;;;;3.00;2.80;;;28.00;48.70;;;;;;4946472;29;20945;-87
2023/09/25 10:26:15;;;;;;;3.67;2.90;;;27.50;50.80;;;;;;4946808;29;20444;-87
2023/09/25 10:28:41;;;;;;;2.67;2.47;;;26.30;52.80;;;;;;4935154;29;21022;-87
2023/09/25 10:31:21;;;;;;;3.27;2.90;;;24.60;54.80;;;;;;4948749;29;20505;-87
2023/09/25 10:33:55;;;;;;;2.93;2.73;;;23.30;57.20;;;;;;4948455;29;20507;-88
2023/09/25 10:36:21;;;;;;;5.07;2.90;;;23.30;58.80;;;;;;4954309;28;20478;-87
2023/09/25 10:38:54;;;;;;;5.17;4.10;;;22.70;61.30;;;;;;4946797;29;20539;-87
2023/09/25 10:41:22;;;;;;;6.47;4.20;;;22.60;62.70;;;;;;4951963;29;20452;-86
2023/09/25 10:43:48;;;;;;;4.37;3.23;;;22.40;63.80;;;;;;4948168;28;20464;-87
2023/09/25 10:46:14;;;;;;;3.53;2.90;;;22.50;65.20;;;;;;4943821;29;20981;-87
2023/09/25 10:48:39;;;;;;;4.43;3.00;;;22.20;65.50;;;;;;4936368;29;20288;-87
2023/09/25 10:51:06;;;;;;;3.30;2.80;;;21.80;67.30;;;;;;4963523;28;20436;-87
2023/09/25 10:53:33;;;;;;;3.40;3.10;;;21.60;69.10;;;;;;4969429;28;20256;-87
2023/09/25 10:55:58;;;;;;;4.22;3.30;;;21.70;69.70;;;;;;4956314;28;20200;-87
2023/09/25 10:58:25;;;;;;;2.60;2.40;;;21.80;69.20;;;;;;4948078;29;20182;-87
2023/09/25 11:00:51;;;;;;;5.33;3.60;;;22.60;66.70;;;;;;4948349;29;20539;-87
2023/09/25 11:03:16;;;;;;;3.13;2.83;;;23.10;67.10;;;;;;4950438;29;20518;-88
2023/09/25 11:05:43;;;;;;;4.13;3.10;;;22.40;68.30;;;;;;4950667;29;20547;-88
2023/09/25 11:08:15;;;;;;;4.60;2.60;;;22.50;67.10;;;;;;4949973;29;20193;-87
2023/09/25 11:10:42;;;;;;;2.90;2.70;;;22.70;66.70;;;;;;4946911;29;21019;-87
2023/09/25 11:13:09;;;;;;;3.20;2.80;;;22.30;68.00;;;;;;4943082;29;21008;-87
2023/09/25 11:15:37;;;;;;;3.13;2.93;;;22.20;68.70;;;;;;4946558;28;20445;-88
2023/09/25 11:18:06;;;;;;;3.47;3.17;;;22.40;67.90;;;;;;4936184;29;20650;-87
2023/09/25 11:20:33;;;;;;;2.80;2.60;;;22.10;68.90;;;;;;4948494;29;20444;-88
2023/09/25 11:23:10;;;;;;;6.30;2.90;;;22.40;69.80;;;;;;4947311;29;20468;-87
2023/09/25 11:25:53;;;;;;;3.47;3.17;;;22.20;69.70;;;;;;4945775;29;20793;-87
2023/09/25 11:28:25;;;;;;;3.03;2.80;;;22.80;69.70;;;;;;4948854;29;20503;-87
2023/09/25 11:30:51;;;;;;;2.87;2.67;;;22.40;69.20;;;;;;4951030;29;20471;-87
2023/09/25 11:33:19;;;;;;;4.20;2.93;;;22.20;70.70;;;;;;4950523;29;21001;-87
2023/09/25 11:35:49;;;;;;;3.87;3.13;;;21.90;70.20;;;;;;4944973;28;20185;-87
2023/09/25 11:38:21;;;;;;;3.90;2.77;;;21.80;70.40;;;;;;4946468;29;22008;-88
2023/09/25 11:40:50;;;;;;;5.43;2.67;;;22.00;70.40;;;;;;4944367;28;20516;-87
2023/09/25 11:43:15;;;;;;;4.22;2.88;;;22.20;70.40;;;;;;4948746;29;20499;-88
2023/09/25 11:45:41;;;;;;;2.80;2.47;;;22.20;71.30;;;;;;4967876;28;20189;-88
2023/09/25 11:48:09;;;;;;;2.30;2.20;;;22.60;72.30;;;;;;4954784;29;20284;-88
2023/09/25 11:50:35;;;;;;;5.13;2.65;;;21.90;71.60;;;;;;4948069;29;20228;-88
2023/09/25 11:53:00;;;;;;;5.83;3.00;;;21.80;71.20;;;;;;4948116;29;20216;-87
2023/09/25 11:55:27;;;;;;;3.50;3.20;;;21.80;70.50;;;;;;4944456;29;20548;-88
2023/09/25 11:57:52;;;;;;;4.40;3.37;;;22.20;71.30;;;;;;4951350;29;20193;-87
2023/09/25 12:00:18;;;;;;;3.83;2.80;;;22.10;72.20;;;;;;4953939;29;20965;-88
2023/09/25 12:02:46;;;;;;;3.10;2.50;;;22.40;71.20;;;;;;4952831;29;20232;-88
2023/09/25 12:05:12;;;;;;;3.87;3.43;;;22.20;70.50;;;;;;4949790;29;20209;-87
2023/09/25 12:07:38;;;;;;;4.00;2.50;;;22.10;69.70;;;;;;4950933;29;20469;-87
2023/09/25 12:10:05;;;;;;;3.20;2.30;;;22.40;70.40;;;;;;4948687;29;20965;-88
2023/09/25 12:12:35;;;;;;;3.13;2.50;;;22.00;69.70;;;;;;4947286;29;20613;-87
2023/09/25 12:15:05;;;;;;;2.07;1.97;;;22.10;68.70;;;;;;4947243;29;20475;-87
2023/09/25 12:17:33;;;;;;;2.67;2.45;;;22.00;68.00;;;;;;4944929;29;20438;-87
2023/09/25 12:20:01;;;;;;;2.47;2.13;;;22.20;69.10;;;;;;4943058;29;20328;-87
2023/09/25 12:22:26;;;;;;;2.60;2.40;;;22.50;67.70;;;;;;4942738;28;20468;-86
2023/09/25 12:24:52;;;;;;;3.00;2.30;;;22.20;67.30;;;;;;4938977;28;20445;-87
2023/09/25 12:27:18;;;;;;;1.93;1.83;;;22.30;66.10;;;;;;4944320;29;20456;-87
2023/09/25 12:29:44;;;;;;;3.30;2.23;;;22.70;67.00;;;;;;4930730;29;20451;-87
2023/09/25 12:32:11;;;;;;;3.73;2.57;;;23.60;67.50;;;;;;4943959;28;20354;-87
2023/09/25 12:34:38;;;;;;;2.50;2.30;;;22.50;66.70;;;;;;4948071;29;20477;-87
2023/09/25 12:37:03;;;;;;;2.80;2.50;;;22.30;67.50;;;;;;4944993;29;20463;-88
2023/09/25 12:39:29;;;;;;;3.13;2.60;;;23.00;69.20;;;;;;4944125;29;20640;-88
2023/09/25 12:41:54;;;;;;;2.33;2.13;;;22.70;66.90;;;;;;4940881;29;20259;-86
2023/09/25 12:44:20;;;;;;;3.20;2.43;;;22.60;66.60;;;;;;4943003;29;20185;-87
2023/09/25 12:46:46;;;;;;;3.17;2.10;;;22.60;66.10;;;;;;4947653;29;20200;-86